createdAt,value
2022-11-04T06:52:00.911Z,1938.8
2022-11-04T06:53:00.604Z,2083.1
2022-11-04T06:54:00.607Z,2227.5
2022-11-04T06:55:01.058Z,2413.3
2022-11-04T06:56:00.604Z,2599.1
2022-11-04T06:57:00.847Z,2803.1
2022-11-04T06:58:00.614Z,3007.2
2022-11-04T06:59:00.620Z,3211.3
2022-11-04T07:00:01.320Z,3375.3
2022-11-04T07:01:00.652Z,3539.4
2022-11-04T07:02:15.729Z,3549.6
2022-11-04T07:03:01.130Z,3559.8
2022-11-04T07:04:00.604Z,3570.0
2022-11-04T07:05:00.649Z,3595.9
2022-11-04T07:06:00.587Z,3621.7
2022-11-04T07:07:00.606Z,3685.5
2022-11-04T07:08:00.838Z,3749.2
2022-11-04T07:09:00.611Z,3812.9
2022-11-04T07:10:00.686Z,3880.7
2022-11-04T07:11:00.606Z,3948.5
2022-11-04T07:12:00.606Z,4070.9
2022-11-04T07:13:00.814Z,4193.3
2022-11-04T07:14:00.615Z,4315.7
2022-11-04T07:16:00.615Z,4762.0
2022-11-04T07:17:00.614Z,5083.1
2022-11-04T07:18:00.849Z,5404.1
2022-11-04T07:19:00.638Z,5725.2
2022-11-04T07:21:02.533Z,6230.9
2022-11-04T07:22:00.861Z,6504.1
2022-11-04T07:23:00.822Z,6777.3
2022-11-04T07:24:01.669Z,7050.5
2022-11-04T07:25:00.665Z,7246.0
2022-11-04T07:26:00.617Z,7441.5
2022-11-04T07:28:02.080Z,7674.3
2022-11-04T07:29:00.636Z,7790.7
2022-11-04T07:30:01.538Z,7807.7
2022-11-04T07:31:00.618Z,7824.8
2022-11-04T07:32:00.612Z,8073.9
2022-11-04T07:33:00.820Z,8323.1
2022-11-04T07:34:00.869Z,8572.2
2022-11-04T07:35:00.674Z,8728.5
2022-11-04T07:36:00.646Z,8884.7
2022-11-04T07:37:00.613Z,8925.5
2022-11-04T07:38:00.828Z,8966.3
2022-11-04T07:39:00.615Z,9007.1
2022-11-04T07:40:00.969Z,9500.2
2022-11-04T07:41:00.871Z,9993.3
2022-11-04T07:42:00.620Z,10632.7
2022-11-04T07:43:15.633Z,11272.1
2022-11-04T07:44:00.753Z,11911.5
2022-11-04T07:45:01.537Z,12939.6
2022-11-04T07:46:00.951Z,13967.7
2022-11-04T07:47:00.611Z,14745.1
2022-11-04T07:48:00.615Z,15522.5
2022-11-04T07:49:00.829Z,16299.9
2022-11-04T07:50:02.082Z,16981.9
2022-11-04T07:51:00.616Z,17663.8
2022-11-04T07:52:00.627Z,19660.5
2022-11-04T07:53:00.628Z,21657.1
2022-11-04T07:54:00.847Z,23653.8
2022-11-04T07:55:01.103Z,24455.6
2022-11-04T07:56:00.648Z,25257.4
2022-11-04T07:57:00.623Z,25938.5
2022-11-04T07:58:00.617Z,26619.7
2022-11-04T07:59:00.848Z,27300.8
2022-11-04T08:00:01.543Z,27878.2
2022-11-04T08:01:00.622Z,28455.6
2022-11-04T08:02:00.816Z,29657.0
2022-11-04T08:03:00.687Z,30858.4
2022-11-04T08:04:01.073Z,32059.8
2022-11-04T08:05:00.676Z,33816.0
2022-11-04T08:06:00.631Z,35572.2
2022-11-04T08:07:00.625Z,36087.1
2022-11-04T08:08:00.621Z,36601.9
2022-11-04T08:09:00.882Z,37116.8
2022-11-04T08:10:01.494Z,38079.9
2022-11-04T08:11:00.634Z,39042.9
2022-11-04T08:12:00.742Z,41567.9
2022-11-04T08:13:00.630Z,44092.9
2022-11-04T08:14:00.838Z,46617.9
2022-11-04T08:15:01.098Z,48877.5
2022-11-04T08:16:00.629Z,51137.1
2022-11-04T08:17:00.636Z,52768.9
2022-11-04T08:18:00.622Z,54400.7
2022-11-04T08:19:01.113Z,56032.5
2022-11-04T08:21:00.626Z,57847.5
2022-11-04T08:22:00.637Z,57897.0
2022-11-04T08:23:00.626Z,57946.5
2022-11-04T08:24:00.835Z,57996.1
2022-11-04T08:25:01.668Z,57126.3
2022-11-04T08:26:05.624Z,56256.5
2022-11-04T08:27:00.629Z,53280.3
2022-11-04T08:28:01.326Z,50304.2
2022-11-04T08:29:00.839Z,47328.1
2022-11-04T08:31:00.636Z,40891.5
2022-11-04T08:32:00.634Z,37998.9
2022-11-04T08:33:00.637Z,35106.2
2022-11-04T08:34:00.842Z,32213.5
2022-11-04T08:35:05.687Z,30213.7
2022-11-04T08:36:00.665Z,28213.8
2022-11-04T08:37:00.643Z,28624.1
2022-11-04T08:38:00.820Z,29034.3
2022-11-04T08:39:04.564Z,29444.6
2022-11-04T08:40:00.646Z,30546.0
2022-11-04T08:41:00.698Z,31647.4
2022-11-04T08:42:01.082Z,31548.9
2022-11-04T08:43:00.642Z,31450.3
2022-11-04T08:44:00.958Z,31351.8
2022-11-04T08:46:00.686Z,30573.4
2022-11-04T08:47:00.635Z,30582.3
2022-11-04T08:48:05.255Z,30591.3
2022-11-04T08:49:01.140Z,30600.2
2022-11-04T08:50:01.327Z,31748.5
2022-11-04T08:51:00.679Z,32896.9
2022-11-04T08:52:00.882Z,33708.9
2022-11-04T08:53:00.637Z,34520.9
2022-11-04T08:54:00.839Z,35332.9
2022-11-04T08:55:00.651Z,35828.8
2022-11-04T08:56:00.681Z,36324.7
2022-11-04T08:57:00.649Z,37581.9
2022-11-04T08:58:00.638Z,38839.0
2022-11-04T08:59:01.253Z,40096.1
2022-11-04T09:01:00.678Z,43609.2
2022-11-04T09:02:00.676Z,46015.8
2022-11-04T09:03:00.642Z,48422.4
2022-11-04T09:04:00.940Z,50829.0
2022-11-04T09:05:00.648Z,52032.5
2022-11-04T09:06:00.691Z,53236.1
2022-11-04T09:10:00.875Z,54092.6
2022-11-04T09:11:00.685Z,54949.1
2022-11-04T09:12:00.644Z,56766.7
2022-11-04T09:13:00.650Z,58584.2
2022-11-04T09:14:00.648Z,60401.7
2022-11-04T09:16:00.856Z,64103.6
2022-11-04T09:17:00.650Z,64580.7
2022-11-04T09:18:00.644Z,65057.9
2022-11-04T09:19:00.641Z,65535.0
2022-11-04T09:45:21.467Z,63988.4
2022-11-04T09:46:00.650Z,62441.8
2022-11-04T09:47:00.677Z,61536.5
2022-11-04T09:48:00.714Z,60631.3
2022-11-04T09:49:00.677Z,59726.0
2022-11-04T09:52:01.177Z,59414.1
2022-11-04T09:53:00.933Z,59102.3
2022-11-04T09:54:00.653Z,58790.4
2022-11-04T09:56:00.657Z,56879.3
2022-11-04T09:57:02.005Z,56209.9
2022-11-04T09:58:01.866Z,55540.5
2022-11-04T09:59:00.648Z,54871.1
2022-11-04T10:01:01.092Z,57964.3
2022-11-04T10:02:20.813Z,58869.6
2022-11-04T10:03:15.667Z,59774.9
2022-11-04T10:04:00.871Z,60680.1
2022-11-04T10:07:00.639Z,60992.0
2022-11-04T10:08:00.682Z,61303.9
2022-11-04T10:09:00.860Z,61615.7
2022-11-04T10:10:01.157Z,62571.3
2022-11-04T10:11:00.686Z,63526.8
2022-11-04T10:12:00.934Z,64196.2
2022-11-04T10:13:00.665Z,64865.6
2022-11-04T10:14:01.149Z,65535.0
2022-11-04T10:15:01.569Z,64115.6
2022-11-04T10:16:00.710Z,62696.2
2022-11-04T10:17:00.766Z,61332.1
2022-11-04T10:18:00.659Z,59968.1
2022-11-04T10:19:01.247Z,58604.0
2022-11-04T10:20:01.500Z,57816.9
2022-11-04T10:21:00.667Z,57029.9
2022-11-04T10:30:03.558Z,58449.3
2022-11-04T10:31:00.664Z,59868.7
2022-11-04T10:32:00.667Z,61232.7
2022-11-04T10:33:00.826Z,62596.8
2022-11-04T10:34:00.666Z,63960.9
2022-11-04T10:35:01.123Z,64747.9
2022-11-04T10:36:00.666Z,65535.0
2022-11-04T10:50:31.858Z,65212.3
2022-11-04T10:51:00.753Z,64889.7
2022-11-04T10:52:05.666Z,63252.1
2022-11-04T10:53:00.669Z,61614.6
2022-11-04T10:54:00.703Z,59977.1
2022-11-04T11:00:02.448Z,59977.1
2022-11-04T11:05:11.453Z,60299.7
2022-11-04T11:06:00.952Z,60622.4
2022-11-04T11:07:00.696Z,62259.9
2022-11-04T11:08:00.692Z,63897.5
2022-11-04T11:09:00.814Z,65535.0
2022-11-04T11:30:01.751Z,65535.0
2022-11-04T12:25:06.904Z,58867.0
2022-11-04T12:28:00.225Z,54845.0
2022-11-04T12:29:00.359Z,52431.8
2022-11-04T12:30:01.504Z,49160.2
2022-11-04T12:31:00.227Z,46823.3
2022-11-04T12:32:00.271Z,45070.6
2022-11-04T12:33:00.230Z,45945.8
2022-11-04T12:34:00.504Z,46645.9
2022-11-04T12:35:01.196Z,48363.1
2022-11-04T12:36:00.229Z,49794.1
2022-11-04T12:37:00.652Z,51004.9
2022-11-04T12:38:00.523Z,52042.8
2022-11-04T12:39:00.229Z,52942.3
2022-11-04T12:40:02.098Z,53386.8
2022-11-04T13:05:02.173Z,65535.0
2022-11-04T13:15:03.071Z,65535.0
2022-11-04T13:30:06.891Z,65516.3
2022-11-04T13:31:00.872Z,65497.5
2022-11-04T13:32:01.122Z,65478.8
2022-11-04T13:40:01.093Z,65339.0
2022-11-04T13:41:00.864Z,65199.2
2022-11-04T13:42:00.967Z,65059.4
2022-11-04T13:43:01.111Z,64777.3
2022-11-04T13:44:00.867Z,64495.1
2022-11-04T13:46:00.887Z,63044.1
2022-11-04T13:47:00.874Z,62318.5
2022-11-04T13:48:00.866Z,61336.3
2022-11-04T13:49:00.874Z,60354.0
2022-11-04T13:50:01.082Z,59638.3
2022-11-04T13:51:00.872Z,58922.5
2022-11-04T13:52:00.868Z,58206.8
2022-11-04T13:53:00.873Z,57149.2
2022-11-04T13:54:00.895Z,56091.6
2022-11-04T13:55:07.010Z,55290.7
2022-11-04T13:56:09.568Z,54489.7
2022-11-04T13:57:00.848Z,53688.8
2022-11-04T13:58:00.908Z,53412.7
2022-11-04T13:59:00.894Z,53136.7
2022-11-04T14:01:01.898Z,54625.2
2022-11-04T14:02:00.947Z,55369.5
2022-11-04T14:03:00.977Z,55970.5
2022-11-04T14:04:00.867Z,56571.5
2022-11-04T14:05:01.090Z,56823.8
2022-11-04T14:06:00.884Z,57076.1
2022-11-04T14:07:00.939Z,57328.5
2022-11-04T14:08:00.871Z,57704.1
2022-11-04T14:09:00.874Z,58079.7
2022-11-04T14:10:07.031Z,58344.5
2022-11-04T14:11:00.873Z,58609.3
2022-11-04T14:12:00.871Z,58874.1
2022-11-04T14:13:00.874Z,58624.2
2022-11-04T14:14:01.326Z,58374.3
2022-11-04T14:15:01.845Z,57444.8
2022-11-04T14:16:00.874Z,56515.3
2022-11-04T14:17:00.871Z,55585.7
2022-11-04T14:18:00.899Z,54751.1
2022-11-04T14:19:00.903Z,53916.5
2022-11-04T14:20:01.358Z,53030.5
2022-11-04T14:21:00.873Z,52144.5
2022-11-04T14:22:00.884Z,51258.5
2022-11-04T14:23:00.948Z,50472.3
2022-11-04T14:24:00.878Z,49686.1
2022-11-04T14:25:01.376Z,48890.7
2022-11-04T14:26:00.942Z,48095.2
2022-11-04T14:27:00.944Z,47299.7
2022-11-04T14:28:01.150Z,46532.5
2022-11-04T14:29:00.887Z,45765.2
2022-11-04T14:30:02.198Z,44955.8
2022-11-04T14:31:01.003Z,44146.4
2022-11-04T14:32:00.901Z,43337.0
2022-11-04T14:33:00.889Z,42794.6
2022-11-04T14:34:01.129Z,42252.2
2022-11-04T14:35:01.128Z,41845.1
2022-11-04T14:36:00.977Z,41438.1
2022-11-04T14:37:00.894Z,41031.0
2022-11-04T14:38:00.899Z,40920.6
2022-11-04T14:39:00.893Z,40810.2
2022-11-04T14:40:01.173Z,40281.7
2022-11-04T14:41:00.890Z,39753.3
2022-11-04T14:42:00.969Z,39224.8
2022-11-04T14:43:00.936Z,38615.8
2022-11-04T14:44:00.892Z,38006.8
2022-11-04T14:46:00.902Z,36976.5
2022-11-04T14:47:00.897Z,36461.4
2022-11-04T14:48:00.919Z,35912.1
2022-11-04T14:49:00.895Z,35362.7
2022-11-04T14:51:00.920Z,33116.5
2022-11-04T14:52:00.885Z,31993.3
2022-11-04T14:53:01.177Z,30377.7
2022-11-04T14:54:00.912Z,28762.0
2022-11-04T14:56:01.150Z,26604.9
2022-11-04T14:57:00.895Z,25526.4
2022-11-04T14:58:00.894Z,25229.9
2022-11-04T14:59:00.894Z,24933.5
2022-11-04T15:00:02.833Z,24185.5
2022-11-04T15:01:00.960Z,23437.6
2022-11-04T15:02:01.315Z,22689.7
2022-11-04T15:03:00.948Z,22465.6
2022-11-04T15:04:16.794Z,22241.5
2022-11-04T15:05:01.420Z,22107.7
2022-11-04T15:06:00.903Z,21973.9
2022-11-04T15:07:00.926Z,21840.1
2022-11-04T15:08:00.935Z,21851.5
2022-11-04T15:09:00.902Z,21862.8
2022-11-04T15:10:01.375Z,21660.7
2022-11-04T15:11:00.921Z,21458.5
2022-11-04T15:12:01.147Z,21256.4
2022-11-04T15:13:00.898Z,20393.5
2022-11-04T15:14:00.898Z,19530.7
2022-11-04T15:16:00.904Z,18670.4
2022-11-04T15:17:00.900Z,18240.3
2022-11-04T15:18:00.899Z,17261.1
2022-11-04T15:19:00.900Z,16281.9
2022-11-04T15:20:01.428Z,15704.7
2022-11-04T15:21:00.900Z,15127.6
2022-11-04T15:22:00.903Z,14550.5
2022-11-04T15:23:00.925Z,14048.3
2022-11-04T15:24:00.903Z,13546.1
2022-11-04T15:25:02.088Z,13065.5
2022-11-04T15:26:00.903Z,12584.9
2022-11-04T15:27:00.901Z,12104.3
2022-11-04T15:28:02.036Z,11613.1
2022-11-04T15:29:00.906Z,11122.0
2022-11-04T15:30:01.909Z,10640.1
2022-11-04T15:31:00.901Z,10158.3
2022-11-04T15:32:04.670Z,9676.4
2022-11-04T15:33:00.909Z,9199.2
2022-11-04T15:34:00.914Z,8722.0
2022-11-04T15:36:00.919Z,7802.5
2022-11-04T15:37:01.165Z,7342.8
2022-11-04T15:38:00.908Z,6921.7
2022-11-04T15:39:00.988Z,6500.5
2022-11-04T15:41:00.911Z,5709.1
2022-11-04T15:42:00.910Z,5313.3
2022-11-04T15:43:00.969Z,4949.1
2022-11-04T15:44:00.914Z,4584.8
2022-11-04T15:46:00.914Z,3953.5
2022-11-04T15:47:00.913Z,3637.8
2022-11-04T15:48:01.177Z,3368.3
2022-11-04T15:49:06.217Z,3098.9
2022-11-04T15:50:02.339Z,2860.2
2022-11-04T15:51:00.908Z,2621.5
2022-11-04T15:52:00.910Z,2382.9
2022-11-04T15:53:05.939Z,2182.0
2022-11-04T15:54:01.940Z,1981.1
2022-11-04T15:55:03.047Z,1814.1
2022-11-04T15:56:01.169Z,1647.1
2022-11-04T15:57:01.066Z,1480.1
2022-11-04T15:58:00.942Z,1341.3
2022-11-04T15:59:00.916Z,1202.4
2022-11-04T16:00:03.363Z,1084.7
2022-11-04T16:01:00.978Z,967.1
2022-11-04T16:02:01.038Z,849.4
2022-11-04T16:03:00.914Z,753.1
2022-11-04T16:04:00.984Z,656.7
2022-11-04T16:06:00.913Z,517.1
2022-11-04T16:07:00.920Z,447.3
2022-11-04T16:08:00.916Z,392.3
2022-11-04T16:09:00.919Z,337.2
2022-11-04T16:10:10.576Z,296.5
2022-11-04T16:11:01.223Z,255.7
2022-11-04T16:12:01.178Z,215.0
2022-11-04T16:13:00.948Z,186.7
2022-11-04T16:14:01.179Z,158.5
2022-11-04T16:15:07.769Z,138.6
2022-11-04T16:16:00.929Z,118.7
2022-11-04T16:17:00.923Z,98.9
2022-11-04T16:18:00.967Z,84.9
2022-11-04T16:19:01.187Z,71.0
2022-11-04T16:20:02.465Z,61.5
2022-11-04T16:21:00.925Z,52.1
2022-11-04T16:22:00.919Z,42.6
2022-11-04T16:23:00.927Z,36.3
2022-11-04T16:24:00.926Z,30.1
2022-11-04T16:25:01.750Z,26.0
2022-11-04T16:26:00.940Z,21.9
2022-11-04T16:27:00.920Z,17.9
2022-11-04T16:28:00.924Z,15.3
2022-11-04T16:29:00.923Z,12.8
2022-11-04T16:31:00.922Z,9.6
2022-11-04T16:32:00.920Z,8.0
2022-11-04T16:33:00.944Z,6.9
2022-11-04T16:34:01.150Z,5.9
2022-11-04T16:35:06.870Z,5.1
2022-11-04T16:36:00.922Z,4.4
2022-11-04T16:37:00.923Z,3.7
2022-11-04T16:38:00.951Z,3.2
2022-11-04T16:39:00.923Z,2.7
2022-11-04T16:41:00.926Z,2.2
2022-11-04T16:42:00.949Z,1.9
2022-11-04T16:43:00.918Z,1.7
2022-11-04T16:44:00.925Z,1.5
2022-11-04T16:45:01.615Z,1.3
2022-11-04T16:46:00.991Z,1.1
2022-11-04T16:47:00.935Z,0.9
2022-11-04T16:48:00.977Z,0.8
2022-11-04T16:49:00.924Z,0.7
2022-11-04T16:50:01.152Z,0.6
2022-11-04T16:51:00.929Z,0.5
2022-11-04T16:53:01.171Z,0.4
2022-11-04T16:54:00.930Z,0.3
2022-11-04T16:56:01.137Z,0.2
2022-11-04T16:57:00.932Z,0.1
